Al Cenac — WDD5445 — position and weather

sailwx.info

Track history (hours):
 
Tides and Currents Weather Stations Pressure Air Temp Water Temp Dewpoint Dewpoint Depression Visibility Wind Speed Wind Dir Waves Ship Positions

Al Cenac

Owner: Caillou Island Towing Co, Inc., Houma, LA. More information available from US FCC via Universal Licensing System and Coast Guard Vessel Documentation Center.

Last reported at 2018-May-25 22:45 UTC. Time now 2018-May-26 04:02 UTC.
Position N 40°38' W 074°08'.

; draft 10 m.

Type: Tug. MMSI: 367158530.

Date/timePositionNaut miles runAvg speedWind from/ knotsBaromVisibWave heightAir tempDewpointWater temp
2018-May-25 22:45N 40°38' W 074°08'1 1.8
2018-May-25 22:08N 40°39' W 074°07'0 3.0
2018-May-25 22:00N 40°39' W 074°06'1 1.7
2018-May-25 21:29N 40°39' W 074°05'3 1.2
2018-May-25 19:02N 40°38' W 074°09'4 0.5
2018-May-25 11:56N 40°36' W 074°12'0 0.0
2018-May-25 11:30N 40°36' W 074°12'0 0.0
2018-May-25 11:00N 40°36' W 074°12'0 0.0
2018-May-25 10:25N 40°36' W 074°12'0 0.0
2018-May-25 10:00N 40°36' W 074°12'2 2.1
2018-May-25 08:52N 40°33' W 074°13'6 2.3
2018-May-25 06:26N 40°39' W 074°11'0 1.0
2018-May-25 06:00N 40°39' W 074°10'0 0.0
2018-May-24 21:42N 40°39' W 074°10'1 7.0
2018-May-24 21:30N 40°39' W 074°09'1 1.2
2018-May-24 21:00N 40°38' W 074°08'0 0.0
2018-May-24 20:04N 40°38' W 074°08'3 0.3
2018-May-24 09:00N 40°39' W 074°04'3 0.3
2018-May-23 23:08N 40°38' W 074°08'1 4.9
2018-May-23 23:00N 40°39' W 074°07'3 6.6
2018-May-23 22:30N 40°40' W 074°03'3 5.2
2018-May-23 22:00N 40°41' W 074°00'0 0.3
2018-May-23 21:30N 40°42' W 074°00'3 6.0
2018-May-23 21:00N 40°39' W 074°03'4 7.3
2018-May-23 20:30N 40°38' W 074°08'0 0.0
2018-May-23 19:54N 40°38' W 074°08'0 0.0
2018-May-23 19:00N 40°38' W 074°08'4 8.0
2018-May-23 18:30N 40°40' W 074°03'2 3.8
2018-May-23 18:00N 40°41' W 074°01'1 2.3
2018-May-23 17:30N 40°40' W 074°02'0 0.7
2018-May-23 17:00N 40°40' W 074°02'0 0.1
2018-May-23 16:30N 40°40' W 074°02'1 1.3
2018-May-23 16:00N 40°39' W 074°02'0 0.3
2018-May-23 15:30N 40°39' W 074°03'1 2.0
2018-May-23 15:00N 40°39' W 074°04'5 7.1
2018-May-23 14:20N 40°39' W 074°10'0 0.1
2018-May-23 10:48N 40°39' W 074°10'2 0.8
2018-May-23 08:56N 40°38' W 074°08'0 0.0
2018-May-23 07:32N 40°38' W 074°08'0 0.0
2018-May-23 07:15N 40°38' W 074°08'0 0.0
2018-May-23 03:49N 40°38' W 074°08'0 0.0
2018-May-22 23:24N 40°38' W 074°08'1 1.3
2018-May-22 22:59N 40°38' W 074°09'2 0.6
2018-May-22 20:25N 40°39' W 074°11'2 2.9
2018-May-22 19:41N 40°38' W 074°08'0 0.0
2018-May-22 19:27N 40°38' W 074°08'2 3.2
2018-May-22 18:56N 40°39' W 074°10'0 0.1
2018-May-22 18:28N 40°39' W 074°10'0 0.0
2018-May-22 14:28N 40°39' W 074°10'1 0.5
2018-May-22 13:12N 40°39' W 074°11'3 6.3
2018-May-22 12:43N 40°36' W 074°12'3 7.3
2018-May-22 12:22N 40°33' W 074°13'1 1.8
2018-May-22 11:58N 40°33' W 074°14'0 0.2
2018-May-22 11:30N 40°33' W 074°14'0 0.1
2018-May-22 11:00N 40°34' W 074°14'3 6.5
2018-May-22 10:30N 40°36' W 074°12'3 6.8
2018-May-22 10:00N 40°39' W 074°09'1 1.4
2018-May-22 09:26N 40°38' W 074°08'0 0.0
2018-May-22 08:14N 40°38' W 074°08'0 0.0
2018-May-22 07:50N 40°38' W 074°08'0 0.0
2018-May-22 07:29N 40°38' W 074°08'0 0.0
2018-May-22 06:59N 40°38' W 074°08'0 0.0
2018-May-22 06:27N 40°38' W 074°08'0 0.0
2018-May-22 06:00N 40°38' W 074°08'0 0.0
2018-May-22 05:26N 40°38' W 074°08'0 0.0
2018-May-22 04:57N 40°38' W 074°08'0 0.0
2018-May-22 04:27N 40°38' W 074°08'0 0.0
2018-May-22 03:59N 40°38' W 074°08'0 0.0
2018-May-22 03:21N 40°38' W 074°08'0 0.0
2018-May-22 03:00N 40°38' W 074°08'1 0.0
2018-May-21 16:08N 40°38' W 074°09'2 6.9
2018-May-21 15:50N 40°39' W 074°11'1 0.5
2018-May-21 14:42N 40°39' W 074°11'2 8.9
2018-May-21 14:29N 40°39' W 074°08'0 0.0
2018-May-20 19:49N 40°38' W 074°08'0 0.0
2018-May-20 19:09N 40°38' W 074°08'0 0.0
2018-May-20 18:52N 40°38' W 074°08'0 0.0
2018-May-20 18:30N 40°38' W 074°08'0 0.0
2018-May-20 18:00N 40°38' W 074°08'0 0.0
2018-May-20 17:29N 40°38' W 074°08'0 0.0
2018-May-20 16:56N 40°38' W 074°08'1 0.9
2018-May-20 15:18N 40°39' W 074°10'1 0.1
2018-May-20 03:39N 40°38' W 074°08'0 0.0
2018-May-20 03:26N 40°38' W 074°08'0 0.0
2018-May-20 03:00N 40°38' W 074°08'0 0.0
2018-May-20 02:23N 40°38' W 074°08'0 0.0
2018-May-20 01:53N 40°38' W 074°08'0 0.0
2018-May-20 01:27N 40°38' W 074°08'0 0.0
2018-May-19 22:52N 40°38' W 074°08'0 0.0
2018-May-19 22:30N 40°38' W 074°08'0 0.0
2018-May-19 19:31N 40°38' W 074°08'0 0.0
2018-May-19 19:25N 40°38' W 074°08'0 0.0
2018-May-19 18:57N 40°38' W 074°08'0 0.0
2018-May-19 17:54N 40°38' W 074°08'0 0.0
2018-May-19 17:25N 40°38' W 074°08'0 0.0
2018-May-19 17:00N 40°38' W 074°08'0 0.0
2018-May-19 16:29N 40°38' W 074°08'0 0.0
2018-May-19 15:37N 40°38' W 074°08'0 0.4
2018-May-19 15:18N 40°39' W 074°08'3 9.5
2018-May-19 15:00N 40°39' W 074°04'4 8.5
2018-May-19 14:30N 40°43' W 074°02'3 4.0
2018-May-19 13:43N 40°46' W 074°00'0 0.3
2018-May-19 13:26N 40°46' W 074°00'0 0.4
2018-May-19 13:00N 40°46' W 073°60'0 0.0
2018-May-19 12:30N 40°46' W 073°60'0 0.0
2018-May-19 12:00N 40°46' W 073°60'0 0.0
2018-May-19 11:30N 40°46' W 073°60'0 0.0
2018-May-19 11:00N 40°46' W 073°60'0 0.0
2018-May-19 10:30N 40°46' W 073°60'0 0.0
2018-May-19 10:00N 40°46' W 073°60'0 0.0
2018-May-19 09:30N 40°46' W 073°60'0 0.0
2018-May-19 09:00N 40°46' W 073°60'2 3.3
2018-May-19 08:30N 40°45' W 074°01'3 6.1
2018-May-19 08:00N 40°42' W 074°02'3 6.8
2018-May-19 07:30N 40°39' W 074°05'5 0.8
2018-May-19 01:51N 40°39' W 074°11'2 6.9
2018-May-19 01:30N 40°38' W 074°08'0 0.0
2018-May-19 01:00N 40°38' W 074°08'0 0.0
2018-May-19 00:30N 40°38' W 074°08'0 0.0
2018-May-18 23:56N 40°38' W 074°08'0 0.0
2018-May-18 23:24N 40°38' W 074°08'0 0.0
2018-May-18 23:00N 40°38' W 074°08'0 0.0
2018-May-18 22:27N 40°38' W 074°08'0 0.0
2018-May-18 21:56N 40°38' W 074°08'0 0.0
2018-May-18 21:19N 40°38' W 074°08'0 0.0
2018-May-18 20:56N 40°38' W 074°08'0 0.0
2018-May-18 20:25N 40°38' W 074°08'0 0.0
2018-May-18 20:00N 40°38' W 074°08'0 0.0
2018-May-18 19:30N 40°38' W 074°08'0 0.0
2018-May-18 19:00N 40°38' W 074°08'0 0.0
2018-May-18 18:30N 40°38' W 074°08'0 0.0
2018-May-18 17:49N 40°38' W 074°08'0 0.0
2018-May-18 17:30N 40°38' W 074°08'0 0.0
2018-May-18 17:00N 40°38' W 074°08'0 0.0
2018-May-18 16:28N 40°38' W 074°08'0 0.0
2018-May-18 16:00N 40°38' W 074°08'0 0.0
2018-May-18 15:30N 40°38' W 074°08'1 2.1
2018-May-18 15:00N 40°39' W 074°07'0 0.0
2018-May-18 14:28N 40°39' W 074°07'0 0.0
2018-May-18 13:59N 40°39' W 074°07'1 1.1
2018-May-18 13:29N 40°39' W 074°07'2 3.6
2018-May-18 13:00N 40°39' W 074°05'1 1.5
2018-May-18 12:30N 40°40' W 074°04'0 0.1
2018-May-18 12:00N 40°40' W 074°04'0 0.0
2018-May-18 11:27N 40°40' W 074°04'0 0.5
2018-May-18 11:00N 40°40' W 074°04'2 3.4
2018-May-18 10:30N 40°40' W 074°02'0 0.1
2018-May-18 10:00N 40°40' W 074°02'0 0.0
2018-May-18 09:30N 40°40' W 074°02'0 0.0
2018-May-18 09:00N 40°40' W 074°02'0 0.0
2018-May-18 08:30N 40°40' W 074°02'0 0.0
2018-May-18 08:00N 40°40' W 074°02'0 0.0
2018-May-18 07:30N 40°40' W 074°02'0 0.0
2018-May-18 07:00N 40°40' W 074°02'0 0.0
2018-May-18 06:30N 40°40' W 074°02'0 0.0
2018-May-18 06:00N 40°40' W 074°02'0 0.0
2018-May-18 05:30N 40°40' W 074°02'0 0.0
2018-May-18 05:00N 40°40' W 074°02'2 4.4
2018-May-18 04:30N 40°42' W 074°02'4 7.9
2018-May-18 03:57N 40°46' W 074°00'1 0.2
2018-May-17 19:01N 40°47' W 073°59'0 6.9
2018-May-17 19:00N 40°47' W 073°59'3 6.9
2018-May-17 18:30N 40°44' W 074°01'4 7.3
2018-May-17 18:00N 40°41' W 074°02'1 2.5
2018-May-17 17:30N 40°40' W 074°00'0 0.6
2018-May-17 17:00N 40°40' W 074°01'1 2.0
2018-May-17 16:30N 40°39' W 074°02'1 2.2
2018-May-17 16:00N 40°40' W 074°00'0 0.3
2018-May-17 15:30N 40°40' W 074°00'0 0.0
2018-May-17 15:00N 40°40' W 074°00'1 1.4
2018-May-17 14:30N 40°40' W 074°01'1 1.1
2018-May-17 14:00N 40°40' W 074°00'0 0.0
2018-May-17 13:30N 40°40' W 074°00'0 0.0
2018-May-17 13:00N 40°40' W 074°00'0 0.0
2018-May-17 12:30N 40°40' W 074°00'1 1.1
2018-May-17 12:00N 40°40' W 074°01'3 6.4
2018-May-17 11:30N 40°43' W 073°59'3 1.3
2018-May-17 08:56N 40°46' W 073°57'2 4.1
2018-May-17 08:30N 40°44' W 073°58'2 3.5
2018-May-17 08:00N 40°43' W 073°59'4 7.4
2018-May-17 07:30N 40°40' W 074°02'4 1.5
2018-May-17 04:32N 40°38' W 074°08'0 0.0
2018-May-17 04:25N 40°38' W 074°08'0 0.0
2018-May-17 02:25N 40°38' W 074°08'0 0.0
2018-May-17 01:00N 40°38' W 074°08'0 0.0
2018-May-17 00:29N 40°38' W 074°08'0 0.0
2018-May-17 00:00N 40°38' W 074°08'0 0.0
2018-May-16 23:30N 40°38' W 074°08'0 0.0
2018-May-16 22:54N 40°38' W 074°08'2 4.7
2018-May-16 22:29N 40°39' W 074°10'0 0.1
2018-May-16 19:57N 40°39' W 074°11'0 0.4
2018-May-16 19:05N 40°39' W 074°10'0 3.8
2018-May-16 18:59N 40°39' W 074°10'3 5.6
2018-May-16 18:30N 40°39' W 074°06'3 6.2
2018-May-16 18:00N 40°41' W 074°03'4 8.1
2018-May-16 17:30N 40°43' W 073°58'3 0.2
2018-May-16 02:15N 40°46' W 073°57'1 6.0
2018-May-16 02:00N 40°44' W 073°58'3 5.9
2018-May-16 01:30N 40°42' W 074°00'3 5.9
2018-May-16 01:00N 40°40' W 074°03'3 4.9
2018-May-16 00:22N 40°39' W 074°07'2 5.4
2018-May-15 23:55N 40°39' W 074°10'0 0.5
2018-May-15 23:24N 40°39' W 074°10'0 1.2
2018-May-15 22:59N 40°38' W 074°09'  
Track history (hours):
 
Tides and Currents Weather Stations Pressure Air Temp Water Temp Dewpoint Dewpoint Depression Visibility Wind Speed Wind Dir Waves Ship Positions

Al Cenac

Owner: Caillou Island Towing Co, Inc., Houma, LA. More information available from US FCC via Universal Licensing System and Coast Guard Vessel Documentation Center.

Last reported at 2018-May-25 22:45 UTC. Time now 2018-May-26 04:02 UTC.
Position N 40°38' W 074°08'.

; draft 10 m.

Type: Tug. MMSI: 367158530.

Date/timePositionNaut miles runAvg speedWind from/ knotsBaromVisibWave heightAir tempDewpointWater temp
2018-May-25 22:45N 40°38' W 074°08'1 1.8
2018-May-25 22:08N 40°39' W 074°07'0 3.0
2018-May-25 22:00N 40°39' W 074°06'1 1.7
2018-May-25 21:29N 40°39' W 074°05'3 1.2
2018-May-25 19:02N 40°38' W 074°09'4 0.5
2018-May-25 11:56N 40°36' W 074°12'0 0.0
2018-May-25 11:30N 40°36' W 074°12'0 0.0
2018-May-25 11:00N 40°36' W 074°12'0 0.0
2018-May-25 10:25N 40°36' W 074°12'0 0.0
2018-May-25 10:00N 40°36' W 074°12'2 2.1
2018-May-25 08:52N 40°33' W 074°13'6 2.3
2018-May-25 06:26N 40°39' W 074°11'0 1.0
2018-May-25 06:00N 40°39' W 074°10'0 0.0
2018-May-24 21:42N 40°39' W 074°10'1 7.0
2018-May-24 21:30N 40°39' W 074°09'1 1.2
2018-May-24 21:00N 40°38' W 074°08'0 0.0
2018-May-24 20:04N 40°38' W 074°08'3 0.3
2018-May-24 09:00N 40°39' W 074°04'3 0.3
2018-May-23 23:08N 40°38' W 074°08'1 4.9
2018-May-23 23:00N 40°39' W 074°07'3 6.6
2018-May-23 22:30N 40°40' W 074°03'3 5.2
2018-May-23 22:00N 40°41' W 074°00'0 0.3
2018-May-23 21:30N 40°42' W 074°00'3 6.0
2018-May-23 21:00N 40°39' W 074°03'4 7.3
2018-May-23 20:30N 40°38' W 074°08'0 0.0
2018-May-23 19:54N 40°38' W 074°08'0 0.0
2018-May-23 19:00N 40°38' W 074°08'4 8.0
2018-May-23 18:30N 40°40' W 074°03'2 3.8
2018-May-23 18:00N 40°41' W 074°01'1 2.3
2018-May-23 17:30N 40°40' W 074°02'0 0.7
2018-May-23 17:00N 40°40' W 074°02'0 0.1
2018-May-23 16:30N 40°40' W 074°02'1 1.3
2018-May-23 16:00N 40°39' W 074°02'0 0.3
2018-May-23 15:30N 40°39' W 074°03'1 2.0
2018-May-23 15:00N 40°39' W 074°04'5 7.1
2018-May-23 14:20N 40°39' W 074°10'0 0.1
2018-May-23 10:48N 40°39' W 074°10'2 0.8
2018-May-23 08:56N 40°38' W 074°08'0 0.0
2018-May-23 07:32N 40°38' W 074°08'0 0.0
2018-May-23 07:15N 40°38' W 074°08'0 0.0
2018-May-23 03:49N 40°38' W 074°08'0 0.0
2018-May-22 23:24N 40°38' W 074°08'1 1.3
2018-May-22 22:59N 40°38' W 074°09'2 0.6
2018-May-22 20:25N 40°39' W 074°11'2 2.9
2018-May-22 19:41N 40°38' W 074°08'0 0.0
2018-May-22 19:27N 40°38' W 074°08'2 3.2
2018-May-22 18:56N 40°39' W 074°10'0 0.1
2018-May-22 18:28N 40°39' W 074°10'0 0.0
2018-May-22 14:28N 40°39' W 074°10'1 0.5
2018-May-22 13:12N 40°39' W 074°11'3 6.3
2018-May-22 12:43N 40°36' W 074°12'3 7.3
2018-May-22 12:22N 40°33' W 074°13'1 1.8
2018-May-22 11:58N 40°33' W 074°14'0 0.2
2018-May-22 11:30N 40°33' W 074°14'0 0.1
2018-May-22 11:00N 40°34' W 074°14'3 6.5
2018-May-22 10:30N 40°36' W 074°12'3 6.8
2018-May-22 10:00N 40°39' W 074°09'1 1.4
2018-May-22 09:26N 40°38' W 074°08'0 0.0
2018-May-22 08:14N 40°38' W 074°08'0 0.0
2018-May-22 07:50N 40°38' W 074°08'0 0.0
2018-May-22 07:29N 40°38' W 074°08'0 0.0
2018-May-22 06:59N 40°38' W 074°08'0 0.0
2018-May-22 06:27N 40°38' W 074°08'0 0.0
2018-May-22 06:00N 40°38' W 074°08'0 0.0
2018-May-22 05:26N 40°38' W 074°08'0 0.0
2018-May-22 04:57N 40°38' W 074°08'0 0.0
2018-May-22 04:27N 40°38' W 074°08'0 0.0
2018-May-22 03:59N 40°38' W 074°08'0 0.0
2018-May-22 03:21N 40°38' W 074°08'0 0.0
2018-May-22 03:00N 40°38' W 074°08'1 0.0
2018-May-21 16:08N 40°38' W 074°09'2 6.9
2018-May-21 15:50N 40°39' W 074°11'1 0.5
2018-May-21 14:42N 40°39' W 074°11'2 8.9
2018-May-21 14:29N 40°39' W 074°08'0 0.0
2018-May-20 19:49N 40°38' W 074°08'0 0.0
2018-May-20 19:09N 40°38' W 074°08'0 0.0
2018-May-20 18:52N 40°38' W 074°08'0 0.0
2018-May-20 18:30N 40°38' W 074°08'0 0.0
2018-May-20 18:00N 40°38' W 074°08'0 0.0
2018-May-20 17:29N 40°38' W 074°08'0 0.0
2018-May-20 16:56N 40°38' W 074°08'1 0.9
2018-May-20 15:18N 40°39' W 074°10'1 0.1
2018-May-20 03:39N 40°38' W 074°08'0 0.0
2018-May-20 03:26N 40°38' W 074°08'0 0.0
2018-May-20 03:00N 40°38' W 074°08'0 0.0
2018-May-20 02:23N 40°38' W 074°08'0 0.0
2018-May-20 01:53N 40°38' W 074°08'0 0.0
2018-May-20 01:27N 40°38' W 074°08'0 0.0
2018-May-19 22:52N 40°38' W 074°08'0 0.0
2018-May-19 22:30N 40°38' W 074°08'0 0.0
2018-May-19 19:31N 40°38' W 074°08'0 0.0
2018-May-19 19:25N 40°38' W 074°08'0 0.0
2018-May-19 18:57N 40°38' W 074°08'0 0.0
2018-May-19 17:54N 40°38' W 074°08'0 0.0
2018-May-19 17:25N 40°38' W 074°08'0 0.0
2018-May-19 17:00N 40°38' W 074°08'0 0.0
2018-May-19 16:29N 40°38' W 074°08'0 0.0
2018-May-19 15:37N 40°38' W 074°08'0 0.4
2018-May-19 15:18N 40°39' W 074°08'3 9.5
2018-May-19 15:00N 40°39' W 074°04'4 8.5
2018-May-19 14:30N 40°43' W 074°02'3 4.0
2018-May-19 13:43N 40°46' W 074°00'0 0.3
2018-May-19 13:26N 40°46' W 074°00'0 0.4
2018-May-19 13:00N 40°46' W 073°60'0 0.0
2018-May-19 12:30N 40°46' W 073°60'0 0.0
2018-May-19 12:00N 40°46' W 073°60'0 0.0
2018-May-19 11:30N 40°46' W 073°60'0 0.0
2018-May-19 11:00N 40°46' W 073°60'0 0.0
2018-May-19 10:30N 40°46' W 073°60'0 0.0
2018-May-19 10:00N 40°46' W 073°60'0 0.0
2018-May-19 09:30N 40°46' W 073°60'0 0.0
2018-May-19 09:00N 40°46' W 073°60'2 3.3
2018-May-19 08:30N 40°45' W 074°01'3 6.1
2018-May-19 08:00N 40°42' W 074°02'3 6.8
2018-May-19 07:30N 40°39' W 074°05'5 0.8
2018-May-19 01:51N 40°39' W 074°11'2 6.9
2018-May-19 01:30N 40°38' W 074°08'0 0.0
2018-May-19 01:00N 40°38' W 074°08'0 0.0
2018-May-19 00:30N 40°38' W 074°08'0 0.0
2018-May-18 23:56N 40°38' W 074°08'0 0.0
2018-May-18 23:24N 40°38' W 074°08'0 0.0
2018-May-18 23:00N 40°38' W 074°08'0 0.0
2018-May-18 22:27N 40°38' W 074°08'0 0.0
2018-May-18 21:56N 40°38' W 074°08'0 0.0
2018-May-18 21:19N 40°38' W 074°08'0 0.0
2018-May-18 20:56N 40°38' W 074°08'0 0.0
2018-May-18 20:25N 40°38' W 074°08'0 0.0
2018-May-18 20:00N 40°38' W 074°08'0 0.0
2018-May-18 19:30N 40°38' W 074°08'0 0.0
2018-May-18 19:00N 40°38' W 074°08'0 0.0
2018-May-18 18:30N 40°38' W 074°08'0 0.0
2018-May-18 17:49N 40°38' W 074°08'0 0.0
2018-May-18 17:30N 40°38' W 074°08'0 0.0
2018-May-18 17:00N 40°38' W 074°08'0 0.0
2018-May-18 16:28N 40°38' W 074°08'0 0.0
2018-May-18 16:00N 40°38' W 074°08'0 0.0
2018-May-18 15:30N 40°38' W 074°08'1 2.1
2018-May-18 15:00N 40°39' W 074°07'0 0.0
2018-May-18 14:28N 40°39' W 074°07'0 0.0
2018-May-18 13:59N 40°39' W 074°07'1 1.1
2018-May-18 13:29N 40°39' W 074°07'2 3.6
2018-May-18 13:00N 40°39' W 074°05'1 1.5
2018-May-18 12:30N 40°40' W 074°04'0 0.1
2018-May-18 12:00N 40°40' W 074°04'0 0.0
2018-May-18 11:27N 40°40' W 074°04'0 0.5
2018-May-18 11:00N 40°40' W 074°04'2 3.4
2018-May-18 10:30N 40°40' W 074°02'0 0.1
2018-May-18 10:00N 40°40' W 074°02'0 0.0
2018-May-18 09:30N 40°40' W 074°02'0 0.0
2018-May-18 09:00N 40°40' W 074°02'0 0.0
2018-May-18 08:30N 40°40' W 074°02'0 0.0
2018-May-18 08:00N 40°40' W 074°02'0 0.0
2018-May-18 07:30N 40°40' W 074°02'0 0.0
2018-May-18 07:00N 40°40' W 074°02'0 0.0
2018-May-18 06:30N 40°40' W 074°02'0 0.0
2018-May-18 06:00N 40°40' W 074°02'0 0.0
2018-May-18 05:30N 40°40' W 074°02'0 0.0
2018-May-18 05:00N 40°40' W 074°02'2 4.4
2018-May-18 04:30N 40°42' W 074°02'4 7.9
2018-May-18 03:57N 40°46' W 074°00'1 0.2
2018-May-17 19:01N 40°47' W 073°59'0 6.9
2018-May-17 19:00N 40°47' W 073°59'3 6.9
2018-May-17 18:30N 40°44' W 074°01'4 7.3
2018-May-17 18:00N 40°41' W 074°02'1 2.5
2018-May-17 17:30N 40°40' W 074°00'0 0.6
2018-May-17 17:00N 40°40' W 074°01'1 2.0
2018-May-17 16:30N 40°39' W 074°02'1 2.2
2018-May-17 16:00N 40°40' W 074°00'0 0.3
2018-May-17 15:30N 40°40' W 074°00'0 0.0
2018-May-17 15:00N 40°40' W 074°00'1 1.4
2018-May-17 14:30N 40°40' W 074°01'1 1.1
2018-May-17 14:00N 40°40' W 074°00'0 0.0
2018-May-17 13:30N 40°40' W 074°00'0 0.0
2018-May-17 13:00N 40°40' W 074°00'0 0.0
2018-May-17 12:30N 40°40' W 074°00'1 1.1
2018-May-17 12:00N 40°40' W 074°01'3 6.4
2018-May-17 11:30N 40°43' W 073°59'3 1.3
2018-May-17 08:56N 40°46' W 073°57'2 4.1
2018-May-17 08:30N 40°44' W 073°58'2 3.5
2018-May-17 08:00N 40°43' W 073°59'4 7.4
2018-May-17 07:30N 40°40' W 074°02'4 1.5
2018-May-17 04:32N 40°38' W 074°08'0 0.0
2018-May-17 04:25N 40°38' W 074°08'0 0.0
2018-May-17 02:25N 40°38' W 074°08'0 0.0
2018-May-17 01:00N 40°38' W 074°08'0 0.0
2018-May-17 00:29N 40°38' W 074°08'0 0.0
2018-May-17 00:00N 40°38' W 074°08'0 0.0
2018-May-16 23:30N 40°38' W 074°08'0 0.0
2018-May-16 22:54N 40°38' W 074°08'2 4.7
2018-May-16 22:29N 40°39' W 074°10'0 0.1
2018-May-16 19:57N 40°39' W 074°11'0 0.4
2018-May-16 19:05N 40°39' W 074°10'0 3.8
2018-May-16 18:59N 40°39' W 074°10'3 5.6
2018-May-16 18:30N 40°39' W 074°06'3 6.2
2018-May-16 18:00N 40°41' W 074°03'4 8.1
2018-May-16 17:30N 40°43' W 073°58'3 0.2
2018-May-16 02:15N 40°46' W 073°57'1 6.0
2018-May-16 02:00N 40°44' W 073°58'3 5.9
2018-May-16 01:30N 40°42' W 074°00'3 5.9
2018-May-16 01:00N 40°40' W 074°03'3 4.9
2018-May-16 00:22N 40°39' W 074°07'2 5.4
2018-May-15 23:55N 40°39' W 074°10'0 0.5
2018-May-15 23:24N 40°39' W 074°10'0 1.2
2018-May-15 22:59N 40°38' W 074°09'  

Dump ship's entire track history